createdAt,value
2018-11-28T00:00:09.082Z,5.88
2018-11-28T00:00:21.474Z,5.88
2018-11-28T00:00:33.867Z,5.88
2018-11-28T00:00:46.232Z,5.88
2018-11-28T00:00:58.589Z,5.88
2018-11-28T00:01:10.959Z,5.88
2018-11-28T00:01:23.320Z,5.88
2018-11-28T00:01:35.690Z,5.88
2018-11-28T00:01:48.060Z,5.88
2018-11-28T00:02:00.445Z,5.88
2018-11-28T00:02:12.796Z,5.88
2018-11-28T00:02:25.219Z,5.88
2018-11-28T00:02:37.719Z,5.88
2018-11-28T00:02:50.081Z,5.88
2018-11-28T00:03:02.483Z,5.88
2018-11-28T00:03:15.001Z,5.88
2018-11-28T00:03:27.537Z,5.88
2018-11-28T00:03:39.900Z,5.88
2018-11-28T00:03:52.259Z,5.88
2018-11-28T00:04:04.614Z,5.88
2018-11-28T00:04:17.053Z,5.88
2018-11-28T00:04:29.404Z,5.88
2018-11-28T00:04:41.764Z,5.88
2018-11-28T00:04:54.142Z,5.88
2018-11-28T00:05:06.521Z,5.88
2018-11-28T00:05:19.191Z,5.88
2018-11-28T00:05:31.565Z,3.5
2018-11-28T00:05:43.936Z,3.5
2018-11-28T00:05:56.295Z,3.5
2018-11-28T00:06:08.649Z,3.5
2018-11-28T00:06:21.002Z,3.5
2018-11-28T00:06:33.363Z,3.5
2018-11-28T00:06:45.716Z,3.5
2018-11-28T00:06:58.073Z,3.5
2018-11-28T00:07:10.425Z,3.5
2018-11-28T00:07:22.780Z,3.5
2018-11-28T00:07:35.117Z,3.5
2018-11-28T00:07:47.478Z,3.5
2018-11-28T00:07:59.853Z,3.5
2018-11-28T00:08:12.305Z,3.5
2018-11-28T00:08:24.684Z,3.5
2018-11-28T00:08:37.099Z,3.5
2018-11-28T00:08:49.453Z,3.5
2018-11-28T00:09:01.810Z,3.5
2018-11-28T00:09:14.178Z,3.5
2018-11-28T00:09:27.314Z,3.5
2018-11-28T00:09:39.689Z,3.5
2018-11-28T00:09:52.043Z,3.5
2018-11-28T00:10:04.405Z,3.5
2018-11-28T00:10:16.853Z,3.5
2018-11-28T00:10:29.211Z,3.5
2018-11-28T00:10:41.647Z,3.5
2018-11-28T00:10:54.000Z,3.5
2018-11-28T00:11:06.415Z,3.5
2018-11-28T00:11:18.776Z,3.5
2018-11-28T00:11:31.321Z,3.5
2018-11-28T00:11:43.688Z,3.5
2018-11-28T00:11:56.067Z,3.5
2018-11-28T00:12:08.433Z,3.5
2018-11-28T00:12:20.802Z,3.5
2018-11-28T00:12:33.210Z,3.5
2018-11-28T00:12:45.583Z,3.5
2018-11-28T00:12:58.001Z,3.5
2018-11-28T00:13:10.412Z,3.5
2018-11-28T00:13:22.831Z,3.5
2018-11-28T00:13:35.190Z,3.5
2018-11-28T00:13:47.546Z,3.5
2018-11-28T00:13:59.906Z,3.5
2018-11-28T00:14:12.292Z,3.5
2018-11-28T00:14:24.648Z,3.5
2018-11-28T00:14:36.994Z,3.5
2018-11-28T00:14:49.345Z,3.5
2018-11-28T00:15:01.715Z,3.5
2018-11-28T00:15:14.067Z,3.5
2018-11-28T00:15:26.424Z,3.5
2018-11-28T00:15:38.792Z,4.82
2018-11-28T00:15:51.157Z,4.82
2018-11-28T00:16:03.508Z,4.82
2018-11-28T00:16:15.861Z,4.82
2018-11-28T00:16:28.229Z,4.82
2018-11-28T00:16:40.997Z,4.82
2018-11-28T00:16:53.457Z,4.82
2018-11-28T00:17:05.803Z,4.82
2018-11-28T00:17:18.175Z,4.82
2018-11-28T00:17:30.536Z,4.82
2018-11-28T00:17:42.903Z,4.82
2018-11-28T00:17:55.271Z,4.82
2018-11-28T00:18:07.628Z,4.82
2018-11-28T00:18:19.975Z,4.82
2018-11-28T00:18:32.333Z,4.82
2018-11-28T00:18:44.774Z,4.82
2018-11-28T00:18:57.150Z,4.82
2018-11-28T00:19:09.548Z,4.82
2018-11-28T00:19:21.922Z,4.82
2018-11-28T00:19:34.289Z,4.82
2018-11-28T00:19:46.671Z,4.82
2018-11-28T00:19:59.046Z,4.82
2018-11-28T00:20:11.420Z,4.82
2018-11-28T00:20:23.789Z,4.82
2018-11-28T00:20:36.380Z,4.82
2018-11-28T00:20:48.794Z,4.82
2018-11-28T00:21:01.133Z,4.82
2018-11-28T00:21:13.477Z,4.82
2018-11-28T00:21:26.824Z,4.82
2018-11-28T00:21:39.180Z,4.82
2018-11-28T00:21:51.534Z,4.82
2018-11-28T00:22:03.881Z,4.82
2018-11-28T00:22:16.340Z,4.82
2018-11-28T00:22:29.001Z,4.82
2018-11-28T00:22:41.369Z,4.82
2018-11-28T00:22:53.747Z,4.82
2018-11-28T00:23:06.100Z,4.82
2018-11-28T00:23:18.805Z,4.82
2018-11-28T00:23:31.158Z,4.82
2018-11-28T00:23:43.534Z,4.82
2018-11-28T00:23:55.907Z,4.82
2018-11-28T00:24:08.336Z,4.82
2018-11-28T00:24:20.738Z,4.82
2018-11-28T00:24:33.116Z,4.82
2018-11-28T00:24:45.547Z,4.82
2018-11-28T00:24:57.960Z,4.82
2018-11-28T00:25:10.340Z,4.82
2018-11-28T00:25:22.719Z,4.82
2018-11-28T00:25:35.088Z,3.96
2018-11-28T00:25:47.436Z,3.96
2018-11-28T00:26:05.527Z,3.96
2018-11-28T00:26:17.875Z,3.96
2018-11-28T00:26:30.230Z,3.96
2018-11-28T00:26:42.580Z,3.96
2018-11-28T00:26:54.993Z,3.96
2018-11-28T00:27:07.361Z,3.96
2018-11-28T00:27:19.739Z,3.96
2018-11-28T00:27:32.111Z,3.96
2018-11-28T00:27:44.505Z,3.96
2018-11-28T00:27:56.871Z,3.96
2018-11-28T00:28:09.251Z,3.96
2018-11-28T00:28:21.691Z,3.96
2018-11-28T00:28:34.073Z,3.96
2018-11-28T00:28:46.437Z,3.96
2018-11-28T00:28:58.809Z,3.96
2018-11-28T00:29:11.418Z,3.96
2018-11-28T00:29:23.778Z,3.96
2018-11-28T00:29:36.132Z,3.96
2018-11-28T00:29:48.499Z,3.96
2018-11-28T00:30:00.868Z,3.96
2018-11-28T00:30:13.272Z,3.96
2018-11-28T00:30:25.702Z,3.96
2018-11-28T00:30:38.062Z,3.96
2018-11-28T00:30:50.473Z,3.96
2018-11-28T00:31:02.823Z,3.96
2018-11-28T00:31:15.174Z,3.96
2018-11-28T00:31:27.521Z,3.96
2018-11-28T00:31:39.885Z,3.96
2018-11-28T00:31:52.243Z,3.96
2018-11-28T00:32:04.599Z,3.96
2018-11-28T00:32:18.034Z,3.96
2018-11-28T00:32:30.384Z,3.96
2018-11-28T00:32:42.825Z,3.96
2018-11-28T00:32:55.237Z,3.96
2018-11-28T00:33:07.642Z,3.96
2018-11-28T00:33:20.103Z,3.96
2018-11-28T00:33:32.456Z,3.96
2018-11-28T00:33:45.097Z,3.96
2018-11-28T00:33:57.453Z,3.96
2018-11-28T00:34:09.819Z,3.96
2018-11-28T00:34:22.175Z,3.96
2018-11-28T00:34:34.555Z,3.96
2018-11-28T00:34:46.966Z,3.96
2018-11-28T00:34:59.365Z,3.96
2018-11-28T00:35:11.713Z,3.96
2018-11-28T00:35:24.086Z,3.96
2018-11-28T00:35:36.463Z,5.12
2018-11-28T00:35:48.833Z,5.12
2018-11-28T00:36:01.189Z,5.12
2018-11-28T00:36:13.541Z,5.12
2018-11-28T00:36:25.893Z,5.12
2018-11-28T00:36:38.239Z,5.12
2018-11-28T00:36:50.590Z,5.12
2018-11-28T00:37:02.953Z,5.12
2018-11-28T00:37:15.307Z,5.12
2018-11-28T00:37:27.689Z,5.12
2018-11-28T00:37:40.048Z,5.12
2018-11-28T00:37:52.421Z,5.12
2018-11-28T00:38:04.771Z,5.12
2018-11-28T00:38:17.112Z,5.12
2018-11-28T00:38:29.576Z,5.12
2018-11-28T00:38:41.927Z,5.12
2018-11-28T00:38:54.290Z,5.12
2018-11-28T00:39:06.652Z,5.12
2018-11-28T00:39:19.003Z,5.12
2018-11-28T00:39:31.408Z,5.12
2018-11-28T00:39:43.781Z,5.12
2018-11-28T00:39:56.145Z,5.12
2018-11-28T00:40:08.701Z,5.12
2018-11-28T00:40:21.134Z,5.12
2018-11-28T00:40:33.496Z,5.12
2018-11-28T00:40:45.845Z,5.12
2018-11-28T00:40:58.206Z,5.12
2018-11-28T00:41:10.825Z,5.12
2018-11-28T00:41:23.169Z,5.12
2018-11-28T00:41:35.521Z,5.12
2018-11-28T00:41:48.150Z,5.12
2018-11-28T00:42:00.502Z,5.12
2018-11-28T00:42:12.849Z,5.12
2018-11-28T00:42:25.207Z,5.12
2018-11-28T00:42:37.543Z,5.12
2018-11-28T00:42:49.898Z,5.12
2018-11-28T00:43:02.258Z,5.12
2018-11-28T00:43:14.607Z,5.12
2018-11-28T00:43:26.964Z,5.12
2018-11-28T00:43:39.295Z,5.12
2018-11-28T00:43:51.657Z,5.12
2018-11-28T00:44:04.026Z,5.12
2018-11-28T00:44:16.537Z,5.12
2018-11-28T00:44:28.884Z,5.12
2018-11-28T00:44:41.263Z,5.12
2018-11-28T00:44:53.614Z,5.12
2018-11-28T00:45:05.979Z,5.12
2018-11-28T00:45:18.345Z,5.12
2018-11-28T00:45:30.733Z,5.12
2018-11-28T00:45:43.257Z,5.06
2018-11-28T00:45:55.750Z,5.06
2018-11-28T00:46:08.107Z,5.06
2018-11-28T00:46:20.801Z,5.06
2018-11-28T00:46:33.173Z,5.06
2018-11-28T00:46:45.543Z,5.06
2018-11-28T00:46:57.953Z,5.06
2018-11-28T00:47:10.336Z,5.06
2018-11-28T00:47:22.691Z,5.06
2018-11-28T00:47:35.048Z,5.06
2018-11-28T00:47:47.396Z,5.06
2018-11-28T00:47:59.801Z,5.06
2018-11-28T00:48:12.151Z,5.06
2018-11-28T00:48:24.510Z,5.06
2018-11-28T00:48:36.865Z,5.06
2018-11-28T00:48:49.220Z,5.06
2018-11-28T00:49:01.591Z,5.06
2018-11-28T00:49:13.950Z,5.06
2018-11-28T00:49:26.305Z,5.06
2018-11-28T00:49:38.671Z,5.06
2018-11-28T00:49:51.024Z,5.06
2018-11-28T00:50:03.819Z,5.06
2018-11-28T00:50:16.199Z,5.06
2018-11-28T00:50:28.582Z,5.06
2018-11-28T00:50:40.936Z,5.06
2018-11-28T00:50:53.379Z,5.06
2018-11-28T00:51:05.726Z,5.06
2018-11-28T00:51:18.084Z,5.06
2018-11-28T00:51:30.431Z,5.06
2018-11-28T00:51:42.800Z,5.06
2018-11-28T00:51:55.290Z,5.06
2018-11-28T00:52:07.645Z,5.06
2018-11-28T00:52:19.987Z,5.06
2018-11-28T00:52:32.363Z,5.06
2018-11-28T00:52:44.714Z,5.06
2018-11-28T00:52:57.091Z,5.06
2018-11-28T00:53:09.454Z,5.06
2018-11-28T00:53:21.817Z,5.06
2018-11-28T00:53:34.167Z,5.06
2018-11-28T00:53:46.522Z,5.06
2018-11-28T00:53:58.888Z,5.06
2018-11-28T00:54:11.219Z,5.06
2018-11-28T00:54:23.561Z,5.06
2018-11-28T00:54:35.991Z,5.06
2018-11-28T00:54:48.358Z,5.06
2018-11-28T00:55:00.713Z,5.06
2018-11-28T00:55:13.104Z,5.06
2018-11-28T00:55:25.583Z,5.06
2018-11-28T00:55:37.939Z,5.05
2018-11-28T00:55:55.309Z,5.05
2018-11-28T00:56:07.719Z,5.05
2018-11-28T00:56:20.086Z,5.05
2018-11-28T00:56:32.442Z,5.05
2018-11-28T00:56:44.926Z,5.05
2018-11-28T00:56:57.361Z,5.05
2018-11-28T00:57:09.713Z,5.05
2018-11-28T00:57:22.076Z,5.05
2018-11-28T00:57:34.430Z,5.05
2018-11-28T00:57:46.794Z,5.05
2018-11-28T00:57:59.194Z,5.05
2018-11-28T00:58:11.538Z,5.05
2018-11-28T00:58:23.886Z,5.05
2018-11-28T00:58:36.434Z,5.05
2018-11-28T00:58:48.802Z,5.05
2018-11-28T00:59:01.147Z,5.05
2018-11-28T00:59:13.764Z,5.05
2018-11-28T00:59:27.538Z,5.05
2018-11-28T00:59:39.904Z,5.05
2018-11-28T00:59:52.276Z,5.05
2018-11-28T01:00:04.666Z,5.05
2018-11-28T01:00:17.055Z,5.05
2018-11-28T01:00:29.547Z,5.05
2018-11-28T01:00:41.909Z,5.05
2018-11-28T01:00:54.276Z,5.05
2018-11-28T01:01:06.665Z,5.05
2018-11-28T01:01:19.036Z,5.05
2018-11-28T01:01:31.406Z,5.05
2018-11-28T01:01:43.888Z,5.05
2018-11-28T01:01:56.258Z,5.05
2018-11-28T01:02:08.643Z,5.05
2018-11-28T01:02:21.016Z,5.05
2018-11-28T01:02:33.370Z,5.05
2018-11-28T01:02:45.720Z,5.05
2018-11-28T01:02:58.103Z,5.05
2018-11-28T01:03:10.470Z,5.05
2018-11-28T01:03:22.959Z,5.05
2018-11-28T01:03:35.459Z,5.05
2018-11-28T01:03:47.825Z,5.05
2018-11-28T01:04:00.201Z,5.05
2018-11-28T01:04:12.641Z,5.05
2018-11-28T01:04:24.992Z,5.05
2018-11-28T01:04:37.348Z,5.05
2018-11-28T01:04:49.743Z,5.05
2018-11-28T01:05:02.103Z,5.05
2018-11-28T01:05:14.608Z,5.05
2018-11-28T01:05:26.983Z,5.05
2018-11-28T01:05:39.349Z,5.7
2018-11-28T01:05:51.753Z,5.7
2018-11-28T01:06:04.129Z,5.7
2018-11-28T01:06:16.494Z,5.7
2018-11-28T01:06:28.845Z,5.7
2018-11-28T01:06:41.200Z,5.7
2018-11-28T01:06:53.554Z,5.7
2018-11-28T01:07:05.969Z,5.7
2018-11-28T01:07:18.333Z,5.7
2018-11-28T01:07:30.689Z,5.7
2018-11-28T01:07:43.044Z,5.7
2018-11-28T01:07:55.459Z,5.7
2018-11-28T01:08:07.841Z,5.7
2018-11-28T01:08:20.232Z,5.7
2018-11-28T01:08:32.560Z,5.7
2018-11-28T01:08:44.912Z,5.7
2018-11-28T01:08:57.321Z,5.7
2018-11-28T01:09:09.682Z,5.7
2018-11-28T01:09:22.038Z,5.7
2018-11-28T01:09:34.393Z,5.7
2018-11-28T01:09:46.729Z,5.7
2018-11-28T01:09:59.066Z,5.7
2018-11-28T01:10:11.437Z,5.7
2018-11-28T01:10:23.813Z,5.7
2018-11-28T01:10:36.158Z,5.7
2018-11-28T01:10:48.496Z,5.7
2018-11-28T01:11:00.862Z,5.7
2018-11-28T01:11:13.209Z,5.7
2018-11-28T01:11:25.585Z,5.7
2018-11-28T01:11:38.102Z,5.7
2018-11-28T01:11:50.500Z,5.7
2018-11-28T01:12:02.845Z,5.7
2018-11-28T01:12:15.193Z,5.7
2018-11-28T01:12:27.537Z,5.7
2018-11-28T01:12:39.943Z,5.7
2018-11-28T01:12:52.300Z,5.7
2018-11-28T01:13:04.758Z,5.7
2018-11-28T01:13:17.107Z,5.7
2018-11-28T01:13:29.488Z,5.7
2018-11-28T01:13:41.852Z,5.7
2018-11-28T01:13:54.358Z,5.7
2018-11-28T01:14:06.702Z,5.7
2018-11-28T01:14:19.040Z,5.7
2018-11-28T01:14:31.410Z,5.7
2018-11-28T01:14:43.757Z,5.7
2018-11-28T01:14:56.094Z,5.7
2018-11-28T01:15:08.457Z,5.7
2018-11-28T01:15:20.811Z,5.7
2018-11-28T01:15:33.174Z,5.7
2018-11-28T01:15:45.520Z,4.57
2018-11-28T01:15:57.881Z,4.57
2018-11-28T01:16:10.255Z,4.57
2018-11-28T01:16:22.604Z,4.57
2018-11-28T01:16:34.965Z,4.57
2018-11-28T01:16:47.510Z,4.57
2018-11-28T01:16:59.885Z,4.57
2018-11-28T01:17:12.225Z,4.57
2018-11-28T01:17:24.564Z,4.57
2018-11-28T01:17:36.983Z,4.57
2018-11-28T01:17:49.323Z,4.57
2018-11-28T01:18:01.728Z,4.57
2018-11-28T01:18:14.170Z,4.57
2018-11-28T01:18:26.601Z,4.57
2018-11-28T01:18:38.970Z,4.57
2018-11-28T01:18:51.331Z,4.57
2018-11-28T01:19:03.690Z,4.57
2018-11-28T01:19:16.040Z,4.57
2018-11-28T01:19:28.392Z,4.57
2018-11-28T01:19:40.751Z,4.57
2018-11-28T01:19:53.104Z,4.57
2018-11-28T01:20:05.481Z,4.57
2018-11-28T01:20:17.855Z,4.57
2018-11-28T01:20:30.396Z,4.57
2018-11-28T01:20:42.775Z,4.57
2018-11-28T01:20:55.131Z,4.57
2018-11-28T01:21:07.485Z,4.57
2018-11-28T01:21:19.855Z,4.57
2018-11-28T01:21:32.207Z,4.57
2018-11-28T01:21:44.552Z,4.57
2018-11-28T01:21:56.899Z,4.57
2018-11-28T01:22:09.235Z,4.57
2018-11-28T01:22:21.723Z,4.57
2018-11-28T01:22:34.078Z,4.57
2018-11-28T01:22:46.463Z,4.57
2018-11-28T01:22:58.849Z,4.57
2018-11-28T01:23:11.309Z,4.57
2018-11-28T01:23:23.662Z,4.57
2018-11-28T01:23:36.036Z,4.57
2018-11-28T01:23:48.415Z,4.57
2018-11-28T01:24:00.775Z,4.57
2018-11-28T01:24:13.129Z,4.57
2018-11-28T01:24:25.489Z,4.57
2018-11-28T01:24:37.889Z,4.57
2018-11-28T01:24:50.307Z,4.57
2018-11-28T01:25:02.698Z,4.57
2018-11-28T01:25:15.083Z,4.57
2018-11-28T01:25:27.474Z,4.57
2018-11-28T01:25:39.892Z,5.37
2018-11-28T01:25:52.385Z,5.37
2018-11-28T01:26:05.331Z,5.37
2018-11-28T01:26:17.709Z,5.37
2018-11-28T01:26:30.045Z,5.37
2018-11-28T01:26:42.404Z,5.37
2018-11-28T01:26:54.753Z,5.37
2018-11-28T01:27:07.103Z,5.37
2018-11-28T01:27:19.625Z,5.37
2018-11-28T01:27:31.990Z,5.37
2018-11-28T01:27:44.337Z,5.37
2018-11-28T01:27:56.721Z,5.37
2018-11-28T01:28:09.086Z,5.37
2018-11-28T01:28:21.449Z,5.37
2018-11-28T01:28:33.808Z,5.37
2018-11-28T01:28:52.070Z,5.37
2018-11-28T01:29:04.416Z,5.37
2018-11-28T01:29:16.777Z,5.37
2018-11-28T01:29:29.152Z,5.37
2018-11-28T01:29:41.659Z,5.37
2018-11-28T01:29:54.018Z,5.37
2018-11-28T01:30:06.374Z,5.37
2018-11-28T01:30:18.796Z,5.37
2018-11-28T01:30:31.169Z,5.37
2018-11-28T01:30:43.677Z,5.37
2018-11-28T01:30:56.048Z,5.37
2018-11-28T01:31:08.408Z,5.37
2018-11-28T01:31:20.786Z,5.37
2018-11-28T01:31:33.142Z,5.37
2018-11-28T01:31:45.488Z,5.37
2018-11-28T01:31:57.836Z,5.37
2018-11-28T01:32:10.187Z,5.37
2018-11-28T01:32:22.539Z,5.37
2018-11-28T01:32:34.884Z,5.37
2018-11-28T01:32:47.311Z,5.37
2018-11-28T01:32:59.738Z,5.37
2018-11-28T01:33:12.102Z,5.37
2018-11-28T01:33:24.560Z,5.37
2018-11-28T01:33:37.036Z,5.37
2018-11-28T01:33:49.384Z,5.37
2018-11-28T01:34:01.737Z,5.37
2018-11-28T01:34:14.114Z,5.37
2018-11-28T01:34:26.493Z,5.37
2018-11-28T01:34:38.845Z,5.37
2018-11-28T01:34:51.201Z,5.37
2018-11-28T01:35:03.606Z,5.37
2018-11-28T01:35:15.970Z,5.37
2018-11-28T01:35:28.348Z,5.37
2018-11-28T01:35:40.710Z,5.33
2018-11-28T01:35:53.082Z,5.33
2018-11-28T01:36:05.413Z,5.33
2018-11-28T01:36:17.782Z,5.33
2018-11-28T01:36:30.136Z,5.33
2018-11-28T01:36:42.505Z,5.33
2018-11-28T01:36:54.878Z,5.33
2018-11-28T01:37:07.253Z,5.33
2018-11-28T01:37:19.612Z,5.33
2018-11-28T01:37:31.967Z,5.33
2018-11-28T01:37:44.391Z,5.33
2018-11-28T01:37:56.816Z,5.33
2018-11-28T01:38:09.199Z,5.33
2018-11-28T01:38:21.610Z,5.33
2018-11-28T01:38:33.970Z,5.33
2018-11-28T01:38:46.318Z,5.33
2018-11-28T01:38:58.682Z,5.33
2018-11-28T01:39:11.056Z,5.33
2018-11-28T01:39:23.651Z,5.33
2018-11-28T01:39:36.005Z,5.33
2018-11-28T01:39:48.370Z,5.33
2018-11-28T01:40:00.708Z,5.33
2018-11-28T01:40:13.082Z,5.33
2018-11-28T01:40:25.506Z,5.33
2018-11-28T01:40:37.861Z,5.33
2018-11-28T01:40:50.231Z,5.33
2018-11-28T01:41:02.883Z,5.33
2018-11-28T01:41:15.345Z,5.33
2018-11-28T01:41:27.714Z,5.33
2018-11-28T01:41:40.075Z,5.33
2018-11-28T01:41:52.691Z,5.33
2018-11-28T01:42:05.032Z,5.33
2018-11-28T01:42:17.390Z,5.33
2018-11-28T01:42:29.748Z,5.33
2018-11-28T01:42:42.126Z,5.33
2018-11-28T01:42:54.515Z,5.33
2018-11-28T01:43:07.208Z,5.33
2018-11-28T01:43:19.640Z,5.33
2018-11-28T01:43:31.997Z,5.33
2018-11-28T01:43:44.360Z,5.33
2018-11-28T01:43:56.715Z,5.33
2018-11-28T01:44:09.086Z,5.33
2018-11-28T01:44:21.601Z,5.33
2018-11-28T01:44:33.943Z,5.33
2018-11-28T01:44:46.314Z,5.33
2018-11-28T01:44:58.694Z,5.33
2018-11-28T01:45:11.043Z,5.33
2018-11-28T01:45:23.500Z,5.33
2018-11-28T01:45:35.845Z,5.55
2018-11-28T01:45:48.271Z,5.55
2018-11-28T01:46:00.641Z,5.55
2018-11-28T01:46:13.040Z,5.55
2018-11-28T01:46:25.388Z,5.55
2018-11-28T01:46:37.734Z,5.55
2018-11-28T01:46:50.102Z,5.55
2018-11-28T01:47:02.451Z,5.55
2018-11-28T01:47:14.796Z,5.55
2018-11-28T01:47:27.166Z,5.55
2018-11-28T01:47:39.531Z,5.55
2018-11-28T01:47:51.892Z,5.55
2018-11-28T01:48:04.242Z,5.55
2018-11-28T01:48:16.789Z,5.55
2018-11-28T01:48:29.146Z,5.55
2018-11-28T01:48:41.530Z,5.55
2018-11-28T01:48:53.897Z,5.55
2018-11-28T01:49:06.270Z,5.55
2018-11-28T01:49:18.644Z,5.55
2018-11-28T01:49:31.013Z,5.55
2018-11-28T01:49:43.376Z,5.55
2018-11-28T01:49:55.933Z,5.55
2018-11-28T01:50:09.642Z,5.55
2018-11-28T01:50:22.003Z,5.55
2018-11-28T01:50:34.372Z,5.55
2018-11-28T01:50:46.728Z,5.55
2018-11-28T01:50:59.173Z,5.55
2018-11-28T01:51:11.524Z,5.55
2018-11-28T01:51:23.889Z,5.55
2018-11-28T01:51:36.283Z,5.55
2018-11-28T01:51:48.645Z,5.55
2018-11-28T01:52:01.264Z,5.55
2018-11-28T01:52:13.634Z,5.55
2018-11-28T01:52:26.000Z,5.55
2018-11-28T01:52:38.367Z,5.55
2018-11-28T01:52:50.761Z,5.55
2018-11-28T01:53:03.115Z,5.55
2018-11-28T01:53:15.526Z,5.55
2018-11-28T01:53:27.891Z,5.55
2018-11-28T01:53:40.267Z,5.55
2018-11-28T01:53:52.637Z,5.55
2018-11-28T01:54:04.991Z,5.55
2018-11-28T01:54:17.370Z,5.55
2018-11-28T01:54:29.722Z,5.55
2018-11-28T01:54:42.081Z,5.55
2018-11-28T01:54:54.437Z,5.55
2018-11-28T01:55:06.784Z,5.55
2018-11-28T01:55:19.128Z,5.55
2018-11-28T01:55:31.631Z,5.55
2018-11-28T01:55:43.984Z,4.83
2018-11-28T01:55:56.348Z,4.83
2018-11-28T01:56:08.704Z,4.83
2018-11-28T01:56:21.069Z,4.83
2018-11-28T01:56:33.427Z,4.83
2018-11-28T01:56:45.961Z,4.83
2018-11-28T01:56:58.392Z,4.83
2018-11-28T01:57:10.742Z,4.83
2018-11-28T01:57:23.110Z,4.83
2018-11-28T01:57:35.468Z,4.83
2018-11-28T01:57:47.839Z,4.83
2018-11-28T01:58:00.210Z,4.83
2018-11-28T01:58:12.556Z,4.83
2018-11-28T01:58:24.907Z,4.83
2018-11-28T01:58:37.675Z,4.83
2018-11-28T01:58:50.034Z,4.83
2018-11-28T01:59:02.381Z,4.83
2018-11-28T01:59:14.898Z,4.83
2018-11-28T01:59:27.254Z,4.83
2018-11-28T01:59:39.605Z,4.83
2018-11-28T01:59:51.979Z,4.83
2018-11-28T02:00:04.384Z,4.83
2018-11-28T02:00:16.810Z,4.83
2018-11-28T02:00:29.234Z,4.83
2018-11-28T02:00:41.611Z,4.83
2018-11-28T02:00:54.006Z,4.83
2018-11-28T02:01:06.376Z,4.83
2018-11-28T02:01:18.731Z,4.83
2018-11-28T02:01:31.144Z,4.83
2018-11-28T02:01:43.496Z,4.83
2018-11-28T02:01:55.847Z,4.83
2018-11-28T02:02:08.193Z,4.83
2018-11-28T02:02:20.560Z,4.83
2018-11-28T02:02:32.932Z,4.83
2018-11-28T02:02:45.310Z,4.83
2018-11-28T02:02:57.702Z,4.83
2018-11-28T02:03:10.062Z,4.83
2018-11-28T02:03:22.407Z,4.83
2018-11-28T02:03:35.138Z,4.83
2018-11-28T02:03:47.506Z,4.83
2018-11-28T02:04:00.099Z,4.83
2018-11-28T02:04:12.589Z,4.83
2018-11-28T02:04:24.961Z,4.83
2018-11-28T02:04:37.365Z,4.83
2018-11-28T02:04:49.724Z,4.83
2018-11-28T02:05:02.189Z,4.83
2018-11-28T02:05:14.708Z,4.83
2018-11-28T02:05:27.176Z,4.83
2018-11-28T02:05:39.581Z,6.8
2018-11-28T02:05:51.932Z,6.8
2018-11-28T02:06:04.319Z,6.8
2018-11-28T02:06:16.799Z,6.8
2018-11-28T02:06:29.159Z,6.8
2018-11-28T02:06:41.521Z,6.8
2018-11-28T02:06:53.889Z,6.8
2018-11-28T02:07:06.235Z,6.8
2018-11-28T02:07:18.653Z,6.8
2018-11-28T02:07:30.997Z,6.8
2018-11-28T02:07:43.342Z,6.8
2018-11-28T02:07:55.704Z,6.8
2018-11-28T02:08:08.063Z,6.8
2018-11-28T02:08:20.423Z,6.8
2018-11-28T02:08:32.803Z,6.8
2018-11-28T02:08:45.163Z,6.8
2018-11-28T02:08:57.524Z,6.8
2018-11-28T02:09:09.885Z,6.8
2018-11-28T02:09:22.237Z,6.8
2018-11-28T02:09:34.616Z,6.8
2018-11-28T02:09:46.971Z,6.8
2018-11-28T02:09:59.338Z,6.8
2018-11-28T02:10:11.678Z,6.8
2018-11-28T02:10:24.035Z,6.8
2018-11-28T02:10:36.402Z,6.8
2018-11-28T02:10:48.761Z,6.8
2018-11-28T02:11:01.120Z,6.8
2018-11-28T02:11:13.482Z,6.8
2018-11-28T02:11:25.832Z,6.8
2018-11-28T02:11:38.314Z,6.8
2018-11-28T02:11:50.684Z,6.8
2018-11-28T02:12:03.029Z,6.8
2018-11-28T02:12:15.376Z,6.8
2018-11-28T02:12:27.752Z,6.8
2018-11-28T02:12:40.096Z,6.8
2018-11-28T02:12:52.454Z,6.8
2018-11-28T02:13:04.815Z,6.8
2018-11-28T02:13:17.181Z,6.8
2018-11-28T02:13:29.544Z,6.8
2018-11-28T02:13:41.895Z,6.8
2018-11-28T02:13:54.251Z,6.8
2018-11-28T02:14:06.603Z,6.8
2018-11-28T02:14:18.976Z,6.8
2018-11-28T02:14:31.340Z,6.8
2018-11-28T02:14:43.697Z,6.8
2018-11-28T02:14:56.070Z,6.8
2018-11-28T02:15:08.429Z,6.8
2018-11-28T02:15:20.792Z,6.8
2018-11-28T02:15:33.191Z,6.8
2018-11-28T02:15:45.690Z,6.76
2018-11-28T02:15:58.061Z,6.76
2018-11-28T02:16:10.426Z,6.76
2018-11-28T02:16:22.768Z,6.76
2018-11-28T02:16:35.131Z,6.76
2018-11-28T02:16:47.807Z,6.76
2018-11-28T02:17:00.159Z,6.76
2018-11-28T02:17:12.504Z,6.76
2018-11-28T02:17:24.857Z,6.76
2018-11-28T02:17:37.212Z,6.76
2018-11-28T02:17:49.646Z,6.76
2018-11-28T02:18:02.052Z,6.76
2018-11-28T02:18:14.403Z,6.76
2018-11-28T02:18:26.782Z,6.76
2018-11-28T02:18:39.125Z,6.76
2018-11-28T02:18:51.497Z,6.76
2018-11-28T02:19:03.843Z,6.76
2018-11-28T02:19:16.201Z,6.76
2018-11-28T02:19:28.551Z,6.76
2018-11-28T02:19:40.960Z,6.76
2018-11-28T02:19:53.327Z,6.76
2018-11-28T02:20:05.686Z,6.76
2018-11-28T02:20:18.053Z,6.76
2018-11-28T02:20:30.568Z,6.76
2018-11-28T02:20:42.930Z,6.76
2018-11-28T02:20:55.282Z,6.76
2018-11-28T02:21:07.668Z,6.76
2018-11-28T02:21:20.050Z,6.76
2018-11-28T02:21:32.410Z,6.76
2018-11-28T02:21:44.763Z,6.76
2018-11-28T02:21:57.121Z,6.76
2018-11-28T02:22:09.519Z,6.76
2018-11-28T02:22:22.055Z,6.76
2018-11-28T02:22:34.446Z,6.76
2018-11-28T02:22:46.830Z,6.76
2018-11-28T02:22:59.211Z,6.76
2018-11-28T02:23:12.712Z,6.76
2018-11-28T02:23:25.068Z,6.76
2018-11-28T02:23:37.457Z,6.76
2018-11-28T02:23:49.818Z,6.76
2018-11-28T02:24:02.170Z,6.76
2018-11-28T02:24:14.546Z,6.76
2018-11-28T02:24:26.938Z,6.76
2018-11-28T02:24:39.476Z,6.76
2018-11-28T02:24:51.820Z,6.76
2018-11-28T02:25:04.219Z,6.76
2018-11-28T02:25:16.583Z,6.76
2018-11-28T02:25:28.941Z,6.76
2018-11-28T02:25:41.304Z,6
2018-11-28T02:25:53.764Z,6
2018-11-28T02:26:06.128Z,6
2018-11-28T02:26:18.521Z,6
2018-11-28T02:26:30.896Z,6
2018-11-28T02:26:43.266Z,6
2018-11-28T02:26:55.628Z,6
2018-11-28T02:27:07.974Z,6
2018-11-28T02:27:20.395Z,6
2018-11-28T02:27:32.773Z,6
2018-11-28T02:27:45.171Z,6
2018-11-28T02:27:57.541Z,6
2018-11-28T02:28:09.906Z,6
2018-11-28T02:28:22.253Z,6
2018-11-28T02:28:34.609Z,6
2018-11-28T02:28:46.962Z,6
2018-11-28T02:28:59.304Z,6
2018-11-28T02:29:11.671Z,6
2018-11-28T02:29:24.397Z,6
2018-11-28T02:29:36.806Z,6
2018-11-28T02:29:49.165Z,6
2018-11-28T02:30:01.536Z,6
2018-11-28T02:30:14.055Z,6
2018-11-28T02:30:26.566Z,6
2018-11-28T02:30:38.941Z,6
2018-11-28T02:30:51.489Z,6
2018-11-28T02:31:03.847Z,6
2018-11-28T02:31:16.263Z,6
2018-11-28T02:31:28.675Z,6
2018-11-28T02:31:41.118Z,6
2018-11-28T02:31:53.491Z,6
2018-11-28T02:32:05.932Z,6
2018-11-28T02:32:18.310Z,6
2018-11-28T02:32:30.672Z,6
2018-11-28T02:32:43.092Z,6
2018-11-28T02:32:55.565Z,6
2018-11-28T02:33:07.939Z,6
2018-11-28T02:33:20.317Z,6
2018-11-28T02:33:32.764Z,6
2018-11-28T02:33:45.194Z,6
2018-11-28T02:33:57.584Z,6
2018-11-28T02:34:10.032Z,6
2018-11-28T02:34:22.410Z,6
2018-11-28T02:34:34.772Z,6
2018-11-28T02:34:47.132Z,6
2018-11-28T02:34:59.558Z,6
2018-11-28T02:35:12.119Z,6
2018-11-28T02:35:24.549Z,6
2018-11-28T02:35:36.925Z,6
2018-11-28T02:35:49.301Z,7.5
2018-11-28T02:36:01.669Z,7.5
2018-11-28T02:36:14.070Z,7.5
2018-11-28T02:36:26.457Z,7.5
2018-11-28T02:36:38.830Z,7.5
2018-11-28T02:36:51.211Z,7.5
2018-11-28T02:37:03.601Z,7.5
2018-11-28T02:37:16.011Z,7.5
2018-11-28T02:37:28.378Z,7.5
2018-11-28T02:37:40.816Z,7.5
2018-11-28T02:37:53.245Z,7.5
2018-11-28T02:38:05.611Z,7.5
2018-11-28T02:38:18.008Z,7.5
2018-11-28T02:38:30.405Z,7.5
2018-11-28T02:38:42.788Z,7.5
2018-11-28T02:38:55.156Z,7.5
2018-11-28T02:39:07.551Z,7.5
2018-11-28T02:39:19.914Z,7.5
2018-11-28T02:39:32.292Z,7.5
2018-11-28T02:39:44.679Z,7.5
2018-11-28T02:39:57.054Z,7.5
2018-11-28T02:40:09.455Z,7.5
2018-11-28T02:40:21.926Z,7.5
2018-11-28T02:40:34.309Z,7.5
2018-11-28T02:40:46.695Z,7.5
2018-11-28T02:40:59.094Z,7.5
2018-11-28T02:41:11.723Z,7.5
2018-11-28T02:41:24.088Z,7.5
2018-11-28T02:41:36.512Z,7.5
2018-11-28T02:41:49.083Z,7.5
2018-11-28T02:42:01.622Z,7.5
2018-11-28T02:42:13.980Z,7.5
2018-11-28T02:42:26.367Z,7.5
2018-11-28T02:42:38.788Z,7.5
2018-11-28T02:42:51.262Z,7.5
2018-11-28T02:43:03.658Z,7.5
2018-11-28T02:43:16.126Z,7.5
2018-11-28T02:43:28.495Z,7.5
2018-11-28T02:43:40.879Z,7.5
2018-11-28T02:43:53.255Z,7.5
2018-11-28T02:44:05.775Z,7.5
2018-11-28T02:44:18.324Z,7.5
2018-11-28T02:44:30.711Z,7.5
2018-11-28T02:44:43.088Z,7.5
2018-11-28T02:44:55.487Z,7.5
2018-11-28T02:45:07.912Z,7.5
2018-11-28T02:45:20.456Z,7.5
2018-11-28T02:45:32.926Z,7.5
2018-11-28T02:45:45.399Z,7.72
2018-11-28T02:45:57.762Z,7.72
2018-11-28T02:46:10.137Z,7.72
2018-11-28T02:46:22.499Z,7.72
2018-11-28T02:46:34.958Z,7.72
2018-11-28T02:46:47.333Z,7.72
2018-11-28T02:46:59.710Z,7.72
2018-11-28T02:47:12.071Z,7.72
2018-11-28T02:47:24.456Z,7.72
2018-11-28T02:47:36.839Z,7.72